Time;durP1;ratioP1;P1;durP2;ratioP2;P2;SDS_P1;SDS_P2;PMS_P1;PMS_P2;Temp;Humidity;BMP_temperature;BMP_pressure;BME280_temperature;BME280_humidity;BME280_pressure;Samples;Min_cycle;Max_cycle;Signal;HPM_P1;HPM_P2
2022/12/16 00:01:43;;;;;;;61.87;35.63;;;;;;;7.17;55.82;101054.59;5071952;28;20036;-74
2022/12/16 00:04:09;;;;;;;60.53;35.57;;;;;;;7.41;55.30;101053.28;5071891;28;20032;-73
2022/12/16 00:06:34;;;;;;;64.53;38.43;;;;;;;7.35;55.47;101051.41;5072016;28;20036;-74
2022/12/16 00:09:02;;;;;;;68.17;38.60;;;;;;;7.34;55.45;101058.59;5048411;28;20493;-73
2022/12/16 00:11:30;;;;;;;67.73;38.63;;;;;;;7.37;55.55;101058.19;5047786;28;20043;-74
2022/12/16 00:13:56;;;;;;;55.47;35.40;;;;;;;7.47;55.08;101072.00;5069542;28;20111;-74
2022/12/16 00:16:21;;;;;;;57.27;35.60;;;;;;;7.54;55.18;101066.69;5070919;28;20033;-73
2022/12/16 00:18:47;;;;;;;65.67;38.83;;;;;;;7.63;55.38;101073.50;5071663;28;20021;-74
2022/12/16 00:21:13;;;;;;;65.57;39.20;;;;;;;7.71;55.46;101067.97;5071197;28;20544;-73
2022/12/16 00:23:40;;;;;;;65.18;37.65;;;;;;;7.76;55.23;101068.22;5071244;28;20074;-74
2022/12/16 00:26:07;;;;;;;67.03;38.13;;;;;;;7.88;55.29;101062.06;5071019;28;20051;-74
2022/12/16 00:28:32;;;;;;;73.22;37.35;;;;;;;7.83;55.06;101063.69;5071235;28;20047;-74
2022/12/16 00:30:59;;;;;;;64.85;36.08;;;;;;;8.02;54.86;101061.06;5071154;28;20079;-73
2022/12/16 00:33:26;;;;;;;60.05;36.47;;;;;;;7.87;55.31;101057.75;5071648;28;20045;-73
2022/12/16 00:35:51;;;;;;;67.32;36.85;;;;;;;8.03;55.19;101056.53;5071054;28;20043;-74
2022/12/16 00:38:17;;;;;;;66.40;37.60;;;;;;;7.95;55.65;101062.91;5071068;28;20032;-74
2022/12/16 00:40:43;;;;;;;54.40;34.88;;;;;;;8.05;54.92;101065.19;5071717;28;20040;-73
2022/12/16 00:43:09;;;;;;;66.25;37.53;;;;;;;8.17;54.73;101068.09;5071800;28;20074;-76
2022/12/16 00:45:35;;;;;;;68.78;38.10;;;;;;;8.13;55.28;101075.72;5042281;28;20401;-74
2022/12/16 00:48:00;;;;;;;57.47;37.65;;;;;;;8.08;55.14;101066.66;5051693;28;20111;-75
2022/12/16 00:50:26;;;;;;;65.63;37.15;;;;;;;8.17;55.33;101070.78;5051735;28;20082;-74
2022/12/16 00:52:51;;;;;;;59.58;35.83;;;;;;;8.25;54.74;101078.66;5054007;28;20034;-73
2022/12/16 00:55:18;;;;;;;62.92;36.38;;;;;;;8.26;55.29;101077.59;5071795;28;20500;-74
2022/12/16 00:57:43;;;;;;;63.95;34.22;;;;;;;8.16;55.16;101074.47;5072575;28;20048;-73
2022/12/16 01:00:11;;;;;;;61.53;34.22;;;;;;;8.38;54.70;101081.31;5071770;28;20448;-73
2022/12/16 01:02:39;;;;;;;58.03;35.20;;;;;;;8.36;54.63;101081.53;5071856;28;20056;-73
2022/12/16 01:05:05;;;;;;;57.47;34.78;;;;;;;8.38;54.98;101089.34;5071937;28;20067;-73
2022/12/16 01:07:30;;;;;;;58.85;35.85;;;;;;;8.35;54.50;101095.13;5071999;28;20025;-74
2022/12/16 01:09:56;;;;;;;57.40;34.90;;;;;;;8.43;54.73;101100.28;5072177;28;20383;-74
2022/12/16 01:12:22;;;;;;;56.20;33.08;;;;;;;8.39;54.51;101091.81;5072009;28;20307;-73
2022/12/16 01:14:48;;;;;;;61.33;33.47;;;;;;;8.33;54.82;101102.53;5072022;28;20040;-74
2022/12/16 01:17:14;;;;;;;62.38;34.88;;;;;;;8.42;55.05;101095.94;5071363;28;20254;-73
2022/12/16 01:19:39;;;;;;;62.30;34.47;;;;;;;8.42;55.09;101099.47;5071655;28;20427;-74
2022/12/16 01:22:05;;;;;;;60.90;36.97;;;;;;;8.47;55.10;101101.53;5063358;28;20051;-72
2022/12/16 01:24:30;;;;;;;55.97;35.40;;;;;;;8.31;55.18;101105.44;5072025;28;20060;-73
2022/12/16 01:26:55;;;;;;;65.10;37.28;;;;;;;8.23;55.13;101112.78;5053226;28;20075;-74
2022/12/16 01:29:21;;;;;;;62.47;34.70;;;;;;;8.32;55.55;101114.25;5053384;28;20039;-74
2022/12/16 01:31:46;;;;;;;58.47;32.97;;;;;;;8.39;55.00;101120.47;5070804;28;20043;-73
2022/12/16 01:34:11;;;;;;;56.75;34.75;;;;;;;8.33;55.13;101115.94;5056275;28;20409;-74
2022/12/16 01:36:37;;;;;;;57.03;34.90;;;;;;;8.33;55.25;101127.47;5056310;28;20028;-75
2022/12/16 01:39:02;;;;;;;55.40;31.65;;;;;;;8.40;54.78;101125.63;5071560;28;20063;-74
2022/12/16 01:41:27;;;;;;;58.45;34.72;;;;;;;8.17;55.17;101138.53;5071859;28;20044;-74
2022/12/16 01:44:18;;;;;;;52.90;33.03;;;;;;;8.27;54.71;101146.19;5071633;28;20032;-74
2022/12/16 01:46:58;;;;;;;52.00;30.95;;;;;;;8.23;54.81;101143.06;5071668;28;20055;-74
2022/12/16 01:49:29;;;;;;;48.70;31.30;;;;;;;8.25;54.69;101134.84;5071235;28;20032;-73
2022/12/16 01:52:00;;;;;;;54.88;32.53;;;;;;;8.17;54.88;101143.88;5071656;28;20076;-73
2022/12/16 01:54:55;;;;;;;52.83;32.67;;;;;;;8.23;54.89;101147.59;5071720;28;20045;-74
2022/12/16 01:57:32;;;;;;;52.22;30.67;;;;;;;8.19;54.58;101152.53;5068924;28;20123;-74
2022/12/16 01:59:59;;;;;;;50.63;30.67;;;;;;;8.10;55.27;101136.84;5071436;28;20028;-73
2022/12/16 02:02:25;;;;;;;56.30;33.42;;;;;;;8.08;55.20;101139.72;5071090;28;20036;-74
2022/12/16 02:07:35;;;;;;;53.17;31.85;;;;;;;8.10;54.70;101137.66;5071180;28;20082;-75
2022/12/16 02:10:03;;;;;;;52.47;32.05;;;;;;;8.04;54.94;101145.69;5071549;28;20480;-73
2022/12/16 02:13:15;;;;;;;56.78;31.67;;;;;;;7.84;55.64;101150.97;5075322;28;20055;-74
2022/12/16 02:15:50;;;;;;;53.60;31.50;;;;;;;8.04;55.31;101151.03;4896831;29;20064;-72
2022/12/16 02:18:44;;;;;;;56.13;33.83;;;;;;;7.88;55.67;101161.06;4896720;29;20052;-74
2022/12/16 02:21:21;;;;;;;53.78;32.75;;;;;;;7.72;56.71;101169.44;4896156;29;20127;-74
2022/12/16 02:24:01;;;;;;;58.42;33.50;;;;;;;8.12;55.15;101166.94;4915450;29;20042;-73
2022/12/16 02:26:54;;;;;;;57.08;33.85;;;;;;;8.34;54.73;101173.78;4915282;29;20123;-75
2022/12/16 02:29:57;;;;;;;55.00;33.38;;;;;;;8.18;55.32;101166.91;4915722;29;20121;-74
2022/12/16 02:32:29;;;;;;;57.63;32.28;;;;;;;7.68;56.57;101181.56;4861835;29;20616;-74
2022/12/16 02:35:01;;;;;;;56.33;32.17;;;;;;;8.02;55.49;101163.78;4877931;29;20049;-75
2022/12/16 02:37:43;;;;;;;54.47;32.25;;;;;;;8.04;55.35;101169.78;4877510;29;20311;-74
2022/12/16 02:40:31;;;;;;;48.70;31.83;;;;;;;8.37;54.51;101176.09;4877833;29;20135;-73
2022/12/16 02:43:06;;;;;;;53.85;34.08;;;;;;;8.25;54.68;101180.38;4877954;29;20052;-74
2022/12/16 02:45:31;;;;;;;57.88;35.25;;;;;;;8.09;54.84;101186.03;4877811;29;20494;-73
2022/12/16 02:47:57;;;;;;;57.55;33.92;;;;;;;8.15;54.77;101187.91;4877761;29;20237;-73
2022/12/16 02:50:25;;;;;;;59.83;34.67;;;;;;;8.11;54.57;101182.16;4862035;29;20074;-73
2022/12/16 02:52:54;;;;;;;57.35;33.45;;;;;;;8.05;55.01;101182.94;4932840;28;20444;-74
2022/12/16 02:55:21;;;;;;;63.70;34.42;;;;;;;8.10;54.60;101182.34;4991688;28;20054;-73
2022/12/16 02:58:23;;;;;;;54.75;33.95;;;;;;;8.09;54.29;101189.56;4992465;28;20098;-73
2022/12/16 03:00:54;;;;;;;53.67;32.70;;;;;;;8.08;54.82;101195.91;4992531;28;20061;-74
2022/12/16 03:03:26;;;;;;;64.88;35.33;;;;;;;7.81;54.96;101194.16;4975270;28;20125;-74
2022/12/16 03:05:55;;;;;;;70.78;35.58;;;;;;;7.25;57.31;101205.97;4991702;28;20066;-73
2022/12/16 03:08:28;;;;;;;56.75;33.75;;;;;;;7.24;57.09;101212.31;4995577;28;20120;-74
2022/12/16 03:10:59;;;;;;;57.70;34.08;;;;;;;7.37;57.28;101207.88;5068142;28;20051;-73
2022/12/16 03:13:28;;;;;;;56.03;34.45;;;;;;;7.19;57.85;101204.06;5073903;28;20503;-73
2022/12/16 03:15:57;;;;;;;58.40;32.92;;;;;;;7.33;56.89;101203.94;5073921;28;20036;-74
2022/12/16 03:18:23;;;;;;;53.83;31.75;;;;;;;7.54;56.75;101211.91;5073288;28;20037;-73
2022/12/16 03:20:57;;;;;;;56.72;34.55;;;;;;;7.56;56.47;101217.06;5073247;28;20437;-73
2022/12/16 03:23:46;;;;;;;56.42;33.08;;;;;;;7.70;56.12;101222.31;5071948;28;20036;-73
2022/12/16 03:26:21;;;;;;;56.78;33.22;;;;;;;8.09;54.54;101224.34;4991393;28;20042;-74
2022/12/16 03:28:57;;;;;;;53.97;32.72;;;;;;;8.21;54.61;101229.94;4991511;28;20039;-73
2022/12/16 03:31:42;;;;;;;47.92;30.50;;;;;;;8.05;54.75;101232.97;4975614;28;20062;-73
2022/12/16 03:34:23;;;;;;;57.42;33.00;;;;;;;8.11;54.92;101229.50;5002802;28;20464;-74
2022/12/16 03:36:54;;;;;;;54.88;32.45;;;;;;;8.13;55.19;101232.78;5011162;28;20053;-74
2022/12/16 03:39:22;;;;;;;57.85;32.17;;;;;;;8.13;54.26;101240.81;5011440;28;20525;-73
2022/12/16 03:41:52;;;;;;;58.88;32.97;;;;;;;7.91;55.30;101242.78;5011273;28;20105;-73
2022/12/16 03:44:20;;;;;;;61.53;32.58;;;;;;;7.96;54.98;101243.84;5011035;28;20113;-73
2022/12/16 03:46:46;;;;;;;54.53;33.08;;;;;;;8.31;53.95;101236.63;5010580;28;20729;-74
2022/12/16 03:49:11;;;;;;;64.53;31.95;;;;;;;8.19;54.55;101240.88;5010246;28;20025;-76
2022/12/16 03:51:37;;;;;;;59.28;33.17;;;;;;;7.89;55.20;101247.50;5011123;28;20100;-74
2022/12/16 03:54:02;;;;;;;54.42;32.10;;;;;;;8.02;55.11;101250.25;5010978;28;20511;-73
2022/12/16 03:56:27;;;;;;;56.65;31.30;;;;;;;7.84;55.71;101248.09;5010901;28;20045;-75
2022/12/16 03:58:53;;;;;;;58.95;33.47;;;;;;;8.07;54.97;101250.47;5010660;28;20490;-73
2022/12/16 04:01:18;;;;;;;55.33;32.13;;;;;;;8.12;54.84;101250.69;5010351;28;20072;-72
2022/12/16 04:03:44;;;;;;;49.53;31.52;;;;;;;7.53;56.81;101253.03;5054653;28;20515;-72
2022/12/16 04:06:09;;;;;;;55.05;32.60;;;;;;;8.08;54.78;101259.34;5072952;28;20060;-74
2022/12/16 04:08:34;;;;;;;49.25;31.60;;;;;;;8.06;54.68;101256.84;5072726;28;20074;-74
2022/12/16 04:25:06;;;;;;;56.05;33.92;;;;;;;8.01;56.01;101270.00;5073182;28;20063;-73
2022/12/16 04:27:31;;;;;;;64.28;33.75;;;;;;;7.94;55.96;101279.84;5059107;28;20037;-73
